Time;durP1;ratioP1;P1;durP2;ratioP2;P2;SDS_P1;SDS_P2;PMS_P1;PMS_P2;Temp;Humidity;BMP_temperature;BMP_pressure;BME280_temperature;BME280_humidity;BME280_pressure;Samples;Min_cycle;Max_cycle;Signal;HPM_P1;HPM_P2
2023/09/03 00:00:23;;;;;;;2.67;2.47;;;;;;;18.77;59.90;102249.31;4965351;28;97530;-60
2023/09/03 00:02:48;;;;;;;5.43;3.43;;;;;;;18.77;59.92;102243.72;4969356;28;96882;-62
2023/09/03 00:05:13;;;;;;;2.23;2.10;;;;;;;18.71;59.84;102231.84;4966996;28;97316;-62
2023/09/03 00:07:39;;;;;;;2.70;2.50;;;;;;;18.70;59.78;102231.06;4966427;28;97054;-61
2023/09/03 00:10:04;;;;;;;2.80;2.13;;;;;;;18.68;59.82;102238.41;4967007;28;97221;-60
2023/09/03 00:12:29;;;;;;;2.70;2.50;;;;;;;18.64;59.85;102229.56;4967773;28;97070;-60
2023/09/03 00:14:55;;;;;;;3.10;2.90;;;;;;;18.62;59.83;102241.25;4971212;28;106913;-60
2023/09/03 00:17:20;;;;;;;3.07;2.77;;;;;;;18.62;59.87;102240.47;4968882;28;96959;-61
2023/09/03 00:19:46;;;;;;;3.73;3.03;;;;;;;18.59;59.92;102222.72;4969298;28;97312;-61
2023/09/03 00:22:11;;;;;;;2.60;2.40;;;;;;;18.57;59.92;102224.50;4968829;28;97912;-61
2023/09/03 00:24:36;;;;;;;2.70;2.50;;;;;;;18.57;59.95;102238.44;4967563;28;96915;-62
2023/09/03 00:27:02;;;;;;;2.73;2.53;;;;;;;18.54;60.06;102234.66;4970482;28;97618;-61
2023/09/03 00:29:27;;;;;;;5.13;2.60;;;;;;;18.52;59.82;102247.59;4972309;28;96927;-61
2023/09/03 00:31:52;;;;;;;2.53;2.37;;;;;;;18.47;59.95;102254.69;4972376;28;96819;-61
2023/09/03 00:34:18;;;;;;;2.67;2.43;;;;;;;18.43;59.66;102256.19;4968072;28;100934;-62
2023/09/03 00:36:44;;;;;;;2.17;2.07;;;;;;;18.42;59.97;102272.16;4969345;28;96870;-62
2023/09/03 00:39:10;;;;;;;2.00;1.80;;;;;;;18.38;59.94;102282.78;4969906;28;96914;-61
2023/09/03 00:41:35;;;;;;;3.50;3.00;;;;;;;18.33;60.08;102271.63;4968881;28;96843;-62
2023/09/03 00:44:01;;;;;;;2.70;2.50;;;;;;;18.30;59.82;102281.78;4971562;28;96654;-61
2023/09/03 00:46:26;;;;;;;2.40;2.30;;;;;;;18.28;59.86;102286.34;4970751;28;97104;-61
2023/09/03 00:48:52;;;;;;;3.20;3.00;;;;;;;18.22;59.85;102280.00;4974788;28;97375;-61
2023/09/03 00:51:17;;;;;;;2.30;2.20;;;;;;;18.18;59.79;102285.81;4968481;28;97278;-62
2023/09/03 00:53:47;;;;;;;2.40;2.30;;;;;;;18.14;59.75;102285.31;4969988;28;97644;-60
2023/09/03 00:56:13;;;;;;;2.70;2.50;;;;;;;18.10;59.96;102282.03;4967277;28;97047;-60
2023/09/03 00:58:39;;;;;;;3.77;2.60;;;;;;;18.08;59.79;102276.22;4966989;28;97160;-60
2023/09/03 01:01:05;;;;;;;2.83;2.63;;;;;;;18.07;59.86;102248.84;4969806;28;96826;-61
2023/09/03 01:03:31;;;;;;;2.80;2.60;;;;;;;18.05;60.04;102257.72;4962950;28;96840;-61
2023/09/03 01:05:56;;;;;;;2.70;2.50;;;;;;;18.04;60.00;102252.66;4968861;28;97180;-61
2023/09/03 01:08:22;;;;;;;2.23;2.13;;;;;;;18.01;59.90;102270.38;4965935;28;97174;-61
2023/09/03 01:11:09;;;;;;;2.40;2.20;;;;;;;17.96;59.83;102260.72;4962838;28;97960;-60
2023/09/03 01:13:45;;;;;;;2.40;2.23;;;;;;;17.94;59.86;102260.47;4972556;28;97311;-61
2023/09/03 01:16:25;;;;;;;3.10;2.90;;;;;;;17.91;59.79;102261.47;4970779;28;97121;-61
2023/09/03 01:18:51;;;;;;;2.90;2.60;;;;;;;17.86;59.91;102268.59;4964572;28;97907;-63
2023/09/03 01:21:42;;;;;;;3.30;2.40;;;;;;;17.82;59.82;102270.84;4966930;28;97311;-61
2023/09/03 01:24:39;;;;;;;2.53;2.40;;;;;;;17.77;59.89;102282.75;4964790;28;97145;-62
2023/09/03 01:27:38;;;;;;;2.27;2.17;;;;;;;17.68;60.03;102287.78;4967100;28;97121;-60
2023/09/03 01:30:05;;;;;;;2.20;2.00;;;;;;;17.67;59.91;102286.25;4957489;28;97041;-60
2023/09/03 01:32:31;;;;;;;5.67;2.60;;;;;;;17.67;59.86;102294.63;4964383;28;98897;-60
2023/09/03 01:34:57;;;;;;;3.23;2.90;;;;;;;17.66;59.98;102281.94;4966642;28;97903;-60
2023/09/03 01:37:23;;;;;;;3.00;2.70;;;;;;;17.62;59.92;102282.19;4967564;28;97376;-60
2023/09/03 01:39:48;;;;;;;2.37;2.27;;;;;;;17.62;59.84;102279.41;4966457;28;97255;-61
2023/09/03 01:42:14;;;;;;;3.03;2.73;;;;;;;17.60;59.84;102293.06;4966491;28;97463;-61
2023/09/03 01:44:40;;;;;;;3.10;2.80;;;;;;;17.58;59.87;102290.00;4967588;28;97928;-60
2023/09/03 01:47:20;;;;;;;3.47;3.17;;;;;;;17.56;59.72;102286.97;4968167;28;96858;-61
2023/09/03 01:50:06;;;;;;;2.60;2.40;;;;;;;17.53;59.86;102276.84;4966130;28;96797;-60
2023/09/03 01:52:54;;;;;;;3.17;2.73;;;;;;;17.53;59.93;102288.00;4966918;28;98115;-60
2023/09/03 01:55:21;;;;;;;3.00;2.80;;;;;;;17.52;59.96;102292.03;4967414;28;98287;-60
2023/09/03 01:57:51;;;;;;;3.03;2.73;;;;;;;17.50;59.79;102277.84;4967533;28;97185;-61
2023/09/03 02:00:18;;;;;;;3.00;2.10;;;;;;;17.49;59.76;102273.53;4968144;28;96998;-61
2023/09/03 02:02:46;;;;;;;3.90;2.50;;;;;;;17.45;59.80;102280.59;4964246;28;97613;-60
2023/09/03 02:05:13;;;;;;;3.10;2.70;;;;;;;17.44;59.85;102284.63;4967467;28;96621;-59
2023/09/03 02:07:38;;;;;;;2.90;2.63;;;;;;;17.41;59.80;102275.25;4968317;28;96799;-60
2023/09/03 02:10:04;;;;;;;2.57;2.37;;;;;;;17.38;59.86;102269.94;4968114;28;97025;-60
2023/09/03 02:12:29;;;;;;;7.67;2.30;;;;;;;17.35;59.86;102259.81;4963702;28;97370;-60
2023/09/03 02:14:55;;;;;;;2.50;2.30;;;;;;;17.37;59.99;102269.16;4964589;28;104527;-62
2023/09/03 02:17:20;;;;;;;2.57;2.27;;;;;;;17.39;60.19;102263.09;4966046;28;97094;-61
2023/09/03 02:19:50;;;;;;;2.70;2.50;;;;;;;17.41;60.11;102278.03;4968078;28;97052;-60
2023/09/03 02:22:16;;;;;;;3.10;2.90;;;;;;;17.41;60.21;102264.13;4970382;28;96908;-60
2023/09/03 02:24:42;;;;;;;3.37;3.07;;;;;;;17.43;60.14;102255.28;4970055;28;97079;-60
2023/09/03 02:27:08;;;;;;;4.80;2.23;;;;;;;17.42;60.22;102260.09;4967274;28;97244;-60
2023/09/03 02:29:34;;;;;;;3.80;2.30;;;;;;;17.41;60.15;102266.16;4967815;28;97149;-61
2023/09/03 02:31:59;;;;;;;2.87;2.67;;;;;;;17.41;60.18;102258.56;4968800;28;97769;-61
2023/09/03 02:34:24;;;;;;;2.90;2.70;;;;;;;17.39;60.32;102255.53;4965395;28;109416;-61
2023/09/03 02:36:49;;;;;;;3.20;3.00;;;;;;;17.35;60.31;102248.69;4965361;28;96994;-61
2023/09/03 02:39:15;;;;;;;3.70;3.30;;;;;;;17.39;60.25;102249.97;4967871;28;96845;-61
2023/09/03 02:41:40;;;;;;;2.67;2.47;;;;;;;17.40;60.36;102257.06;4967778;28;102028;-60
2023/09/03 02:44:07;;;;;;;3.30;3.10;;;;;;;17.39;60.31;102252.75;4963968;28;96729;-60
2023/09/03 02:46:32;;;;;;;3.30;3.10;;;;;;;17.40;60.29;102251.50;4968996;28;97606;-60
2023/09/03 02:48:58;;;;;;;2.63;2.53;;;;;;;17.35;60.33;102248.69;4967337;28;97026;-61
2023/09/03 02:51:23;;;;;;;2.77;2.57;;;;;;;17.32;60.35;102258.03;4964169;28;97038;-61
2023/09/03 02:53:51;;;;;;;2.60;2.50;;;;;;;17.32;60.27;102252.47;4967830;28;96779;-62
2023/09/03 02:56:16;;;;;;;3.20;2.97;;;;;;;17.29;60.32;102256.25;4965930;28;96864;-62
2023/09/03 02:58:42;;;;;;;3.40;2.77;;;;;;;17.27;60.08;102261.56;4969227;28;97820;-60
2023/09/03 03:01:14;;;;;;;3.87;3.00;;;;;;;17.22;60.22;102274.19;4966687;28;97722;-60
2023/09/03 03:03:44;;;;;;;9.20;3.10;;;;;;;17.16;60.25;102273.41;4965217;28;97131;-60
2023/09/03 03:06:10;;;;;;;3.90;2.73;;;;;;;17.14;60.08;102285.03;4960914;28;97031;-60
2023/09/03 03:08:35;;;;;;;3.37;3.17;;;;;;;17.12;59.94;102272.88;4968963;28;97158;-60
2023/09/03 03:11:08;;;;;;;5.53;2.97;;;;;;;17.07;60.26;102274.38;4970741;28;96784;-60
2023/09/03 03:13:34;;;;;;;3.77;3.47;;;;;;;17.06;60.30;102280.41;4968829;28;97038;-60
2023/09/03 03:16:13;;;;;;;2.57;2.37;;;;;;;17.05;60.32;102281.69;4967605;28;96973;-61
2023/09/03 03:18:40;;;;;;;3.00;2.80;;;;;;;17.02;60.18;102280.66;4970192;28;96847;-60
2023/09/03 03:21:11;;;;;;;3.63;3.33;;;;;;;17.00;60.17;102294.28;4969039;28;97238;-60
2023/09/03 03:23:38;;;;;;;3.50;3.20;;;;;;;16.97;60.19;102286.19;4967216;28;96862;-61
2023/09/03 03:26:05;;;;;;;2.97;2.77;;;;;;;16.97;60.37;102289.72;4969964;28;97283;-60
2023/09/03 03:28:31;;;;;;;2.90;2.70;;;;;;;16.96;60.31;102307.69;4964808;28;96920;-60
2023/09/03 03:30:59;;;;;;;3.40;3.17;;;;;;;16.95;60.27;102316.53;4964631;28;97188;-60
2023/09/03 03:33:26;;;;;;;3.50;3.30;;;;;;;16.92;60.10;102317.50;4966453;28;97275;-60
2023/09/03 03:35:51;;;;;;;3.30;3.10;;;;;;;16.89;60.24;102319.25;4964021;28;96927;-61
2023/09/03 03:38:16;;;;;;;3.47;3.20;;;;;;;16.85;60.14;102331.88;4964993;28;97111;-60
2023/09/03 03:40:41;;;;;;;3.47;3.23;;;;;;;16.82;60.19;102335.66;4961955;28;112498;-59
2023/09/03 03:43:07;;;;;;;3.97;3.63;;;;;;;16.80;60.16;102343.69;4965476;28;106813;-60
2023/09/03 03:45:32;;;;;;;2.97;2.77;;;;;;;16.78;60.31;102335.84;4965684;28;97070;-60
2023/09/03 03:47:58;;;;;;;2.63;2.43;;;;;;;16.74;60.37;102329.78;4966138;28;97087;-59
2023/09/03 03:50:23;;;;;;;5.20;3.33;;;;;;;16.73;60.32;102327.50;4968133;28;96940;-62
2023/09/03 03:52:48;;;;;;;2.83;2.63;;;;;;;16.74;60.37;102320.66;4965876;28;97821;-61
2023/09/03 03:55:14;;;;;;;3.33;3.03;;;;;;;16.74;60.47;102320.66;4969459;28;96838;-61
2023/09/03 03:57:41;;;;;;;3.37;3.17;;;;;;;16.74;60.39;102329.00;4968635;28;97257;-61
2023/09/03 04:00:07;;;;;;;3.37;3.07;;;;;;;16.73;60.33;102327.50;4967132;28;97667;-62
2023/09/03 04:02:32;;;;;;;3.20;3.00;;;;;;;16.68;60.47;102330.97;4968655;28;96798;-60
2023/09/03 04:04:57;;;;;;;3.40;3.20;;;;;;;16.66;60.46;102339.06;4965909;28;97218;-61
2023/09/03 04:07:23;;;;;;;3.33;3.03;;;;;;;16.66;60.48;102339.81;4967599;28;97340;-60
2023/09/03 04:09:48;;;;;;;3.10;2.90;;;;;;;16.68;60.65;102337.31;4964329;28;103293;-60
2023/09/03 04:12:13;;;;;;;3.10;2.90;;;;;;;16.69;60.62;102338.06;4966201;28;97260;-62
2023/09/03 04:14:38;;;;;;;7.93;3.07;;;;;;;16.66;60.57;102331.50;4964134;28;96854;-60
2023/09/03 04:17:04;;;;;;;3.67;3.37;;;;;;;16.66;60.57;102333.50;4967004;28;98638;-62
2023/09/03 04:19:29;;;;;;;3.00;2.80;;;;;;;16.68;60.54;102330.97;4964859;28;97352;-60
2023/09/03 04:21:54;;;;;;;3.57;3.30;;;;;;;16.69;60.55;102343.59;4969937;28;97634;-60
2023/09/03 04:24:20;;;;;;;3.63;3.40;;;;;;;16.67;60.50;102335.78;4966644;28;97225;-59
2023/09/03 04:26:45;;;;;;;3.33;3.13;;;;;;;16.68;60.51;102339.31;4964531;28;96697;-60
2023/09/03 04:29:11;;;;;;;3.80;3.50;;;;;;;16.67;60.54;102323.88;4965120;28;97145;-60
2023/09/03 04:31:36;;;;;;;3.43;3.23;;;;;;;16.67;60.46;102332.22;4965621;28;102698;-60
2023/09/03 04:34:02;;;;;;;3.70;3.40;;;;;;;16.65;60.54;102334.75;4970151;28;97069;-60
2023/09/03 04:36:28;;;;;;;3.43;3.20;;;;;;;16.65;60.52;102329.94;4971910;28;97320;-60
2023/09/03 04:38:53;;;;;;;4.73;3.60;;;;;;;16.62;60.43;102339.25;4967144;28;98617;-61
2023/09/03 04:41:18;;;;;;;4.57;4.17;;;;;;;16.62;60.58;102342.03;4968258;28;97092;-60
2023/09/03 04:43:44;;;;;;;5.30;4.80;;;;;;;16.62;60.55;102344.09;4963425;28;99976;-60
2023/09/03 04:46:10;;;;;;;5.17;4.77;;;;;;;16.62;60.61;102350.38;4964612;28;97068;-61
2023/09/03 04:48:35;;;;;;;8.50;4.80;;;;;;;16.61;60.70;102348.88;4965183;28;96868;-60
2023/09/03 04:51:04;;;;;;;6.10;5.50;;;;;;;16.65;60.84;102359.75;4963144;28;102829;-62
2023/09/03 04:53:31;;;;;;;4.40;4.10;;;;;;;16.65;60.71;102366.06;4966282;28;97155;-62
2023/09/03 04:55:56;;;;;;;5.00;4.30;;;;;;;16.67;60.68;102379.47;4967386;28;96802;-61
2023/09/03 04:58:22;;;;;;;9.40;4.57;;;;;;;16.67;60.72;102383.03;4963799;28;97433;-60
2023/09/03 05:00:47;;;;;;;6.20;4.57;;;;;;;16.68;60.82;102384.56;4972306;28;97095;-60
2023/09/03 05:03:12;;;;;;;6.03;5.43;;;;;;;16.70;60.93;102395.19;4969560;28;97234;-60
2023/09/03 05:05:41;;;;;;;4.70;4.27;;;;;;;16.70;60.81;102400.75;4969430;28;97375;-60
2023/09/03 05:08:10;;;;;;;5.70;5.03;;;;;;;16.74;60.89;102420.72;4970851;28;96771;-60
2023/09/03 05:10:36;;;;;;;4.97;4.57;;;;;;;16.74;60.96;102429.84;4968161;28;97233;-60
2023/09/03 05:13:06;;;;;;;8.27;5.80;;;;;;;16.76;60.87;102451.56;4971020;28;97081;-60
2023/09/03 05:15:32;;;;;;;5.50;4.77;;;;;;;16.74;60.92;102451.31;4971365;28;96813;-60
2023/09/03 05:17:57;;;;;;;5.13;4.63;;;;;;;16.72;61.04;102437.13;4969542;28;98431;-61
2023/09/03 05:20:22;;;;;;;8.53;5.50;;;;;;;16.74;61.23;102435.41;4968570;28;100124;-61
2023/09/03 05:22:47;;;;;;;5.83;5.23;;;;;;;16.76;61.19;102452.34;4969579;28;99025;-62
2023/09/03 05:25:13;;;;;;;5.80;4.80;;;;;;;16.79;61.25;102459.72;4971157;28;99212;-61
2023/09/03 05:27:38;;;;;;;13.60;5.87;;;;;;;16.76;61.39;102471.03;4969636;28;97253;-60
2023/09/03 05:30:05;;;;;;;6.27;5.67;;;;;;;16.83;61.32;102451.13;4967334;28;97423;-60
2023/09/03 05:32:31;;;;;;;6.03;5.43;;;;;;;16.85;61.31;102457.75;4970153;28;96710;-60
2023/09/03 05:34:56;;;;;;;8.13;5.80;;;;;;;16.88;61.24;102469.91;4968439;28;97103;-60
2023/09/03 05:37:21;;;;;;;6.77;5.80;;;;;;;16.89;61.36;102468.63;4968072;28;97541;-60
2023/09/03 05:39:49;;;;;;;7.40;6.30;;;;;;;16.91;61.39;102455.75;4966400;28;98814;-60
2023/09/03 05:42:14;;;;;;;7.50;6.50;;;;;;;16.96;61.59;102443.16;4966570;28;96996;-61
2023/09/03 05:44:40;;;;;;;7.83;7.03;;;;;;;16.99;61.64;102442.94;4968614;28;97168;-60
2023/09/03 05:47:05;;;;;;;6.80;6.10;;;;;;;17.04;61.67;102458.13;4967316;28;97410;-60
2023/09/03 05:49:30;;;;;;;6.50;5.90;;;;;;;17.11;61.74;102452.13;4969891;28;99001;-61
2023/09/03 05:51:56;;;;;;;7.00;6.30;;;;;;;17.12;61.70;102454.41;4968726;28;97318;-60
2023/09/03 05:54:21;;;;;;;9.27;6.70;;;;;;;17.18;61.71;102462.81;4968821;28;96673;-62
2023/09/03 05:56:46;;;;;;;7.03;6.30;;;;;;;17.23;61.81;102464.88;4968112;28;108230;-61
2023/09/03 05:59:13;;;;;;;7.40;5.80;;;;;;;17.27;61.72;102470.22;4970482;28;97251;-61
2023/09/03 06:01:38;;;;;;;8.53;6.90;;;;;;;17.29;61.78;102485.16;4969782;28;96649;-61
2023/09/03 06:04:06;;;;;;;6.90;6.20;;;;;;;17.31;61.83;102490.22;4970513;28;97332;-61
2023/09/03 06:06:38;;;;;;;6.80;6.10;;;;;;;17.35;61.90;102487.97;4970393;28;97855;-60
2023/09/03 06:09:03;;;;;;;6.63;5.87;;;;;;;17.36;61.83;102490.25;4971001;28;97223;-60
2023/09/03 06:11:29;;;;;;;8.33;5.77;;;;;;;17.37;61.85;102485.44;4969839;28;96970;-60
2023/09/03 06:13:54;;;;;;;7.30;6.60;;;;;;;17.43;61.89;102484.22;4969641;28;96948;-61
2023/09/03 06:16:20;;;;;;;6.07;5.50;;;;;;;17.46;61.83;102477.69;4966778;28;104996;-61
2023/09/03 06:18:45;;;;;;;5.87;5.30;;;;;;;17.50;61.87;102481.03;4969360;28;97353;-60
2023/09/03 06:21:10;;;;;;;5.67;5.07;;;;;;;17.50;61.93;102481.03;4970738;28;97122;-62
2023/09/03 06:23:36;;;;;;;6.13;5.40;;;;;;;17.54;61.84;102478.03;4956508;28;98614;-61
2023/09/03 06:26:01;;;;;;;6.27;5.67;;;;;;;17.57;61.96;102469.44;4982987;28;97505;-61
2023/09/03 06:28:28;;;;;;;5.83;5.30;;;;;;;17.59;61.96;102469.69;4965440;28;106082;-62
2023/09/03 06:30:56;;;;;;;5.67;5.17;;;;;;;17.64;61.81;102471.75;4965950;28;97260;-61
2023/09/03 06:33:22;;;;;;;6.90;5.10;;;;;;;17.67;61.99;102467.97;4968367;28;96831;-61
2023/09/03 06:35:47;;;;;;;5.10;4.70;;;;;;;17.69;61.99;102468.22;4968257;28;97971;-60
2023/09/03 06:38:12;;;;;;;5.80;5.17;;;;;;;17.73;61.95;102476.34;4965943;28;97350;-61
2023/09/03 06:40:38;;;;;;;5.27;4.87;;;;;;;17.77;61.86;102476.88;4966582;28;96806;-61
2023/09/03 06:43:03;;;;;;;5.80;4.80;;;;;;;17.79;62.04;102483.47;4971037;28;97518;-61
2023/09/03 06:45:29;;;;;;;5.77;5.27;;;;;;;17.81;61.86;102486.53;4970091;28;97183;-60
2023/09/03 06:47:54;;;;;;;5.30;4.90;;;;;;;17.84;62.09;102487.56;4964608;28;97097;-60
2023/09/03 06:50:19;;;;;;;5.03;4.63;;;;;;;17.87;62.09;102489.31;4966266;28;97397;-60
2023/09/03 06:52:44;;;;;;;5.70;5.20;;;;;;;17.89;61.99;102495.91;4965025;28;96918;-60
2023/09/03 06:55:10;;;;;;;6.03;5.43;;;;;;;17.88;61.98;102488.84;4963111;28;109651;-61
2023/09/03 06:57:35;;;;;;;5.77;5.00;;;;;;;17.96;62.12;102495.47;4967346;28;107970;-61
2023/09/03 07:00:05;;;;;;;5.20;4.80;;;;;;;17.97;62.09;102491.41;4971640;28;103821;-61
2023/09/03 07:02:31;;;;;;;5.47;4.97;;;;;;;18.02;62.13;102498.25;4969393;28;96802;-62
2023/09/03 07:04:59;;;;;;;5.30;4.90;;;;;;;18.10;62.15;102506.91;4963188;28;103233;-62
2023/09/03 07:07:25;;;;;;;7.40;5.70;;;;;;;18.17;62.24;102509.22;4968663;28;97032;-62
2023/09/03 07:09:50;;;;;;;6.50;5.20;;;;;;;18.25;62.13;102507.47;4966948;28;96631;-61
2023/09/03 07:12:15;;;;;;;5.83;5.23;;;;;;;18.31;62.19;102511.81;4964430;28;97545;-60
2023/09/03 07:14:40;;;;;;;6.00;5.40;;;;;;;18.36;61.97;102513.09;4960827;28;102342;-59
2023/09/03 07:17:06;;;;;;;6.77;6.07;;;;;;;18.45;62.33;102518.47;4963324;28;97156;-60
2023/09/03 07:19:31;;;;;;;6.07;5.50;;;;;;;18.52;62.16;102512.41;4965633;28;97468;-61
2023/09/03 07:21:56;;;;;;;6.70;6.10;;;;;;;18.57;62.14;102515.22;4967707;28;96992;-61
2023/09/03 07:24:22;;;;;;;6.10;5.60;;;;;;;18.61;62.01;102521.31;4966553;28;96734;-62
2023/09/03 07:26:47;;;;;;;6.03;5.40;;;;;;;18.67;61.92;102518.53;4965790;28;97109;-61
2023/09/03 07:29:13;;;;;;;6.63;5.70;;;;;;;18.70;62.14;102526.66;4966541;28;97293;-61
2023/09/03 07:31:43;;;;;;;7.13;6.43;;;;;;;18.74;62.20;102529.19;4967726;28;97280;-62
2023/09/03 07:34:13;;;;;;;6.40;5.80;;;;;;;18.76;62.09;102532.25;4968908;28;97399;-61
2023/09/03 07:36:38;;;;;;;6.50;5.90;;;;;;;18.80;62.17;102538.34;4969036;28;97146;-61
2023/09/03 07:39:05;;;;;;;6.60;5.97;;;;;;;18.84;62.19;102533.28;4965331;28;97108;-60
2023/09/03 07:41:33;;;;;;;6.63;6.00;;;;;;;18.88;62.21;102530.22;4964781;28;97054;-60
2023/09/03 07:43:59;;;;;;;6.90;6.20;;;;;;;18.92;62.21;102537.09;4964719;28;96767;-61
2023/09/03 07:46:25;;;;;;;6.17;5.60;;;;;;;18.96;61.97;102542.44;4964595;28;97023;-61
2023/09/03 07:48:51;;;;;;;5.97;5.47;;;;;;;19.00;62.21;102537.34;4961289;28;97064;-61
2023/09/03 07:51:17;;;;;;;6.60;4.83;;;;;;;19.02;62.26;102527.22;4965568;28;96838;-61
2023/09/03 07:53:43;;;;;;;5.83;5.30;;;;;;;19.05;62.03;102534.56;4966135;28;97421;-61
2023/09/03 07:56:08;;;;;;;6.83;6.17;;;;;;;19.13;62.15;102530.00;4966699;28;96719;-59
2023/09/03 07:58:34;;;;;;;5.90;5.37;;;;;;;19.17;62.15;102535.34;4963467;28;97046;-62
2023/09/03 08:01:00;;;;;;;6.70;6.10;;;;;;;19.18;62.14;102532.03;4964087;28;101221;-63
2023/09/03 08:03:34;;;;;;;6.13;5.50;;;;;;;19.26;62.21;102543.47;4962604;28;97020;-61
2023/09/03 08:06:03;;;;;;;6.70;6.00;;;;;;;19.33;62.15;102548.53;4964268;28;96839;-61
2023/09/03 08:08:28;;;;;;;6.07;5.50;;;;;;;19.39;62.10;102552.88;4965851;28;96733;-61
2023/09/03 08:10:55;;;;;;;6.07;5.57;;;;;;;19.44;62.02;102542.97;4969104;28;96956;-61
2023/09/03 08:13:20;;;;;;;5.47;5.03;;;;;;;19.54;62.20;102547.03;4965908;28;97481;-60
2023/09/03 08:15:45;;;;;;;8.67;6.00;;;;;;;19.62;61.86;102548.03;4966048;28;100088;-60
2023/09/03 08:18:11;;;;;;;5.97;5.47;;;;;;;19.70;61.85;102542.69;4964402;28;97041;-61
2023/09/03 08:20:36;;;;;;;6.10;5.60;;;;;;;19.80;61.80;102552.31;4959738;28;97115;-59
2023/09/03 08:23:01;;;;;;;6.00;5.23;;;;;;;19.90;61.90;102564.72;4959123;28;101731;-61
2023/09/03 08:25:28;;;;;;;8.03;5.67;;;;;;;19.99;61.78;102567.25;4967633;28;99910;-61
2023/09/03 08:27:53;;;;;;;6.30;4.60;;;;;;;20.09;61.53;102562.91;4964061;28;96915;-62
2023/09/03 08:30:18;;;;;;;4.57;4.20;;;;;;;20.21;61.52;102586.78;4961902;28;97650;-62
2023/09/03 08:32:44;;;;;;;5.00;4.60;;;;;;;20.32;61.39;102572.75;4963509;28;96872;-62
2023/09/03 08:35:09;;;;;;;4.83;4.43;;;;;;;20.40;61.34;102565.34;4968269;28;96561;-61
2023/09/03 08:37:34;;;;;;;4.63;4.23;;;;;;;20.48;61.35;102563.56;4972742;28;98165;-61
2023/09/03 08:40:00;;;;;;;4.67;4.27;;;;;;;20.59;61.21;102566.31;4969569;28;96928;-60
2023/09/03 08:42:26;;;;;;;4.07;3.67;;;;;;;20.76;61.22;102578.16;4967695;28;97398;-60
2023/09/03 08:44:57;;;;;;;5.90;4.80;;;;;;;20.89;60.92;102571.97;4964108;28;97408;-61
2023/09/03 08:47:23;;;;;;;4.53;4.13;;;;;;;20.98;60.73;102576.50;4965965;28;97220;-60
2023/09/03 08:49:50;;;;;;;5.57;4.60;;;;;;;21.06;60.89;102569.84;4969695;28;97249;-62
2023/09/03 08:52:16;;;;;;;4.43;3.90;;;;;;;21.17;60.75;102557.81;4967710;28;97402;-61
2023/09/03 08:54:41;;;;;;;4.30;3.90;;;;;;;21.23;60.54;102555.75;4969208;28;97080;-61
2023/09/03 08:57:08;;;;;;;3.37;3.17;;;;;;;21.31;60.54;102551.84;4967968;28;97262;-60
2023/09/03 08:59:34;;;;;;;3.30;3.00;;;;;;;21.39;60.23;102563.22;4964793;28;97187;-61
2023/09/03 09:01:59;;;;;;;3.03;2.83;;;;;;;21.52;60.02;102571.78;4967246;28;97361;-61
2023/09/03 09:04:30;;;;;;;3.43;3.10;;;;;;;21.65;59.75;102569.88;4967198;28;99443;-60
2023/09/03 09:06:59;;;;;;;3.10;2.40;;;;;;;21.77;59.76;102564.91;4966604;28;97068;-61
2023/09/03 09:09:26;;;;;;;2.60;2.40;;;;;;;21.97;59.64;102572.13;4970835;28;96663;-61
2023/09/03 09:12:03;;;;;;;2.10;2.00;;;;;;;22.18;58.96;102575.97;4969371;28;97324;-61
2023/09/03 09:14:38;;;;;;;1.70;1.60;;;;;;;22.35;58.53;102566.06;4968705;28;97864;-61
2023/09/03 09:17:10;;;;;;;2.30;1.53;;;;;;;22.44;58.28;102559.31;4971163;28;96834;-62
2023/09/03 09:19:35;;;;;;;2.40;1.50;;;;;;;22.51;58.05;102563.56;4968857;28;97023;-61
2023/09/03 09:22:00;;;;;;;2.10;1.30;;;;;;;22.54;57.89;102562.53;4967243;28;109434;-59
2023/09/03 09:24:26;;;;;;;1.30;1.20;;;;;;;22.55;58.12;102564.78;4968210;28;97094;-62
2023/09/03 09:26:51;;;;;;;1.27;1.23;;;;;;;22.67;58.02;102568.22;4969545;28;97165;-63
2023/09/03 09:29:21;;;;;;;2.30;2.10;;;;;;;22.76;57.45;102565.06;4967665;28;97366;-63
2023/09/03 09:31:46;;;;;;;1.47;1.27;;;;;;;22.82;57.56;102566.50;4968921;28;97206;-64
2023/09/03 09:34:12;;;;;;;1.30;1.20;;;;;;;22.80;57.40;102568.31;4967349;28;97494;-63
2023/09/03 09:36:38;;;;;;;2.70;1.20;;;;;;;22.77;57.43;102569.34;4967091;28;97287;-62
2023/09/03 09:39:08;;;;;;;1.40;1.30;;;;;;;22.85;57.33;102579.44;4974049;28;96993;-62
2023/09/03 09:41:43;;;;;;;2.20;1.50;;;;;;;22.94;57.03;102573.44;4966613;28;97404;-60
2023/09/03 09:44:10;;;;;;;2.00;1.70;;;;;;;22.99;56.90;102567.00;4965460;28;97049;-62
2023/09/03 09:46:36;;;;;;;1.60;1.50;;;;;;;23.02;56.68;102565.91;4965749;28;97155;-62
2023/09/03 09:49:02;;;;;;;1.60;1.50;;;;;;;23.03;56.41;102559.00;4966974;28;97167;-62
2023/09/03 09:51:29;;;;;;;1.73;1.30;;;;;;;23.10;56.86;102555.59;4964936;28;97871;-64
2023/09/03 09:53:55;;;;;;;1.47;1.10;;;;;;;23.25;56.56;102554.31;4964382;28;97165;-62
2023/09/03 09:56:25;;;;;;;1.33;1.20;;;;;;;23.35;55.74;102555.47;4967797;28;96982;-62
2023/09/03 09:58:51;;;;;;;1.10;1.00;;;;;;;23.45;56.21;102560.16;4970333;28;97136;-64
2023/09/03 10:01:16;;;;;;;1.50;1.30;;;;;;;23.57;55.71;102558.63;4971966;28;96852;-62
2023/09/03 10:03:44;;;;;;;1.47;1.20;;;;;;;23.69;55.58;102564.81;4967107;28;103935;-62
2023/09/03 10:06:09;;;;;;;1.73;0.90;;;;;;;23.75;55.61;102569.06;4967441;28;97124;-61
2023/09/03 10:08:35;;;;;;;1.70;1.27;;;;;;;23.80;55.38;102571.00;4966977;28;97300;-60
2023/09/03 10:11:01;;;;;;;2.50;1.23;;;;;;;23.80;54.55;102564.63;4964680;28;97540;-62
2023/09/03 10:13:26;;;;;;;2.70;1.40;;;;;;;23.94;53.79;102568.19;4967352;28;97031;-62
2023/09/03 10:15:52;;;;;;;1.30;1.20;;;;;;;23.87;53.96;102569.59;4969735;28;96765;-65
2023/09/03 10:18:19;;;;;;;1.03;0.93;;;;;;;23.90;54.12;102567.75;4966885;28;97458;-64
2023/09/03 10:20:46;;;;;;;1.27;1.10;;;;;;;23.90;53.73;102560.06;4968141;28;97283;-63
2023/09/03 10:23:13;;;;;;;1.43;1.17;;;;;;;23.91;53.62;102572.09;4963952;28;97115;-64
2023/09/03 10:25:39;;;;;;;1.07;0.97;;;;;;;23.81;53.25;102572.50;4968493;28;97192;-61
2023/09/03 10:28:07;;;;;;;1.17;1.00;;;;;;;23.83;53.11;102574.78;4966651;28;97279;-62
2023/09/03 10:30:38;;;;;;;0.83;0.83;;;;;;;23.87;52.43;102577.28;4963054;28;97383;-60
2023/09/03 10:33:07;;;;;;;0.90;0.90;;;;;;;23.84;52.56;102568.63;4963727;28;97256;-61
2023/09/03 10:35:32;;;;;;;1.73;1.10;;;;;;;23.82;52.77;102571.22;4967013;28;97125;-62
2023/09/03 10:37:58;;;;;;;1.87;1.10;;;;;;;23.85;52.40;102581.38;4969048;28;97370;-61
2023/09/03 10:40:25;;;;;;;1.00;0.80;;;;;;;23.89;52.58;102580.31;4970251;28;97469;-62
2023/09/03 10:42:51;;;;;;;1.07;0.87;;;;;;;23.96;52.54;102582.47;4969919;28;97130;-63
2023/09/03 10:45:18;;;;;;;1.20;1.00;;;;;;;24.04;52.37;102586.16;4970359;28;97089;-65
2023/09/03 10:48:03;;;;;;;1.20;1.07;;;;;;;24.10;50.77;102584.78;4970860;28;97519;-63
2023/09/03 10:50:50;;;;;;;1.10;1.00;;;;;;;24.18;50.86;102596.16;4968297;28;97129;-62
2023/09/03 10:53:41;;;;;;;1.17;1.03;;;;;;;24.23;51.24;102596.03;4970023;28;99114;-62
2023/09/03 10:56:10;;;;;;;1.60;1.00;;;;;;;24.31;51.23;102593.31;4964432;28;96816;-64
2023/09/03 10:58:51;;;;;;;1.20;1.10;;;;;;;24.35;50.69;102591.66;4966214;28;96908;-62
2023/09/03 11:01:33;;;;;;;1.10;0.80;;;;;;;24.41;50.73;102600.78;4962854;28;97377;-62
2023/09/03 11:04:00;;;;;;;0.80;0.70;;;;;;;24.52;51.51;102594.91;4974488;28;97602;-63
2023/09/03 11:06:28;;;;;;;0.80;0.80;;;;;;;24.61;50.83;102590.88;4969012;28;97101;-62
2023/09/03 11:08:59;;;;;;;1.17;0.83;;;;;;;24.70;49.96;102593.25;4967842;28;96803;-62
2023/09/03 11:11:33;;;;;;;1.00;0.90;;;;;;;24.77;50.18;102591.84;4966119;28;97314;-62
2023/09/03 11:13:58;;;;;;;1.40;0.87;;;;;;;24.76;50.01;102596.72;4964821;28;98382;-62
2023/09/03 11:16:31;;;;;;;1.03;0.60;;;;;;;24.80;48.56;102602.00;4968836;28;97264;-61
2023/09/03 11:18:57;;;;;;;1.10;0.80;;;;;;;24.87;49.83;102604.16;4968957;28;97043;-62
2023/09/03 11:21:26;;;;;;;0.87;0.83;;;;;;;24.86;49.61;102597.00;4966637;28;97277;-63
2023/09/03 11:24:20;;;;;;;0.80;0.77;;;;;;;24.90;47.63;102594.63;4969921;28;97294;-61